Glenwood Springs, CO

1:59 PM MST on February 27, 2017 (GMT -0700)
SE Glenwood Springs | | Change Station

Elev 5948 ft 39.53 °N, 107.32 °W | Updated 2 seconds ago

Overcast
Overcast
41.5 °F
Feels Like 42 °F
N
0.0
Wind Variable Wind from North
Gusts 0.0 mph

Today
High -- | Low -- °F
--% Chance of Precip.
Yesterday
High -- | Low -- °F
Precip. -- in
Pressure 29.64 in
Visibility 10.0 miles
Clouds Few 3000 ft
Mostly Cloudy 3700 ft
Overcast 5500 ft
Windchill 42 °F
Dew Point 20 °F
Humidity 41%
Rainfall 0.02 in
Snow Depth Not available.
6:44 AM 5:59 PM
New Moon, 2% visible
METAR KRIL 272053Z AUTO 28010G16KT 10SM FEW030 BKN037 OVC055 05/M03 A2965 RMK AO2 SLP037 60000 T00501028 58011
Pressure 29.64 in
Visibility 10.0 miles
Clouds Few 3000 ft
Mostly Cloudy 3700 ft
Overcast 5500 ft
Windchill 42 °F
Dew Point 20 °F
Humidity 41%
Rainfall 0.02 in
Snow Depth Not available.
6:44 AM 5:59 PM
New Moon, 2% visible
METAR KRIL 272053Z AUTO 28010G16KT 10SM FEW030 BKN037 OVC055 05/M03 A2965 RMK AO2 SLP037 60000 T00501028 58011

Get Your Daily Forecast Email!

Thanks for signing up!

Be on the lookout for a verification email in your inbox.

You'll start receiving the daily forecast at 8 AM.

×

10-Day Weather Forecast

Almanac

Astronomy

Feb. 27, 2017 Rise Set
Actual Time
Civil Twilight
Nautical Twilight
Astronomical Twilight
Moon
Length of Visible Light
Length of Day
Tomorrow will be .
, % of the Moon is Illuminated

Today's Extremes

State Highs State Lows

Community

WunderPhotos

Upload Photos

1,962,540 photos uploaded!

WunderBlog® & News

Nearby

Air Quality

  Air Quality AQ Index Pollutant
Not available.

Snow Depth

Station Depth Elevation

Earthquake Activity

City Distance Mag. Time & Date
Minimum magnitude displayed is 2.5.

Coastal Water Temperatures

Place Temperature

Stations

Nearby Weather Stations

Station Location Temp. Windchill Dew Point Humidity Wind Precip. Elev Updated Type
                   

Watches & Warnings

There are currently no watches in effect.